Time;durP1;ratioP1;P1;durP2;ratioP2;P2;SDS_P1;SDS_P2;PMS_P1;PMS_P2;Temp;Humidity;BMP_temperature;BMP_pressure;BME280_temperature;BME280_humidity;BME280_pressure;Samples;Min_cycle;Max_cycle;Signal;HPM_P1;HPM_P2
2022/10/04 00:00:57;;;;;;;;;;;;;;;;;;5095465;28;19960;-76
2022/10/04 00:03:23;;;;;;;;;;;;;;;;;;5096376;28;19947;-77
2022/10/04 00:05:49;;;;;;;;;;;;;;;;;;5091053;28;20017;-78
2022/10/04 00:08:16;;;;;;;;;;;;;;;;;;5095033;28;19978;-79
2022/10/04 00:10:43;;;;;;;;;;;;;;;;;;5094232;28;19952;-77
2022/10/04 00:13:09;;;;;;;;;;;;;;;;;;5095225;27;20462;-77
2022/10/04 00:15:38;;;;;;;;;;;;;;;;;;5087952;28;19963;-77
2022/10/04 00:18:04;;;;;;;;;;;;;;;;;;5096154;28;19963;-77
2022/10/04 00:20:30;;;;;;;;;;;;;;;;;;5098342;28;19951;-77
2022/10/04 00:22:57;;;;;;;;;;;;;;;;;;5095836;28;19990;-77
2022/10/04 00:25:23;;;;;;;;;;;;;;;;;;5099943;28;19974;-77
2022/10/04 00:27:49;;;;;;;;;;;;;;;;;;5092819;28;20011;-76
2022/10/04 00:30:15;;;;;;;;;;;;;;;;;;5092400;28;19956;-77
2022/10/04 00:32:42;;;;;;;;;;;;;;;;;;5081233;28;20590;-76
2022/10/04 00:35:08;;;;;;;;;;;;;;;;;;5097638;28;19939;-77
2022/10/04 00:37:34;;;;;;;;;;;;;;;;;;5101064;28;19958;-78
2022/10/04 00:40:00;;;;;;;;;;;;;;;;;;5090614;28;19947;-78
2022/10/04 00:42:26;;;;;;;;;;;;;;;;;;5094466;28;20012;-78
2022/10/04 00:44:53;;;;;;;;;;;;;;;;;;5095675;28;20633;-77
2022/10/04 00:47:19;;;;;;;;;;;;;;;;;;5105090;27;19916;-78
2022/10/04 00:49:45;;;;;;;;;;;;;;;;;;5094819;28;19965;-78
2022/10/04 00:52:11;;;;;;;;;;;;;;;;;;5065374;28;19947;-77
2022/10/04 00:54:40;;;;;;;;;;;;;;;;;;5097782;27;20327;-77
2022/10/04 00:57:06;;;;;;;;;;;;;;;;;;5099122;27;19960;-77
2022/10/04 00:59:32;;;;;;;;;;;;;;;;;;5098497;27;19966;-77
2022/10/04 01:01:58;;;;;;;;;;;;;;;;;;5090315;28;20049;-77
2022/10/04 01:04:25;;;;;;;;;;;;;;;;;;5089396;28;20902;-77
2022/10/04 01:06:51;;;;;;;;;;;;;;;;;;5096796;28;19967;-77
2022/10/04 01:09:17;;;;;;;;;;;;;;;;;;5084431;28;19993;-79
2022/10/04 01:11:43;;;;;;;;;;;;;;;;;;5096787;27;20406;-78
2022/10/04 01:14:10;;;;;;;;;;;;;;;;;;5097945;27;19943;-77
2022/10/04 01:16:36;;;;;;;;;;;;;;;;;;5086928;28;19955;-79
2022/10/04 01:19:02;;;;;;;;;;;;;;;;;;5091765;28;19959;-77
2022/10/04 01:21:28;;;;;;;;;;;;;;;;;;5087192;28;19971;-77
2022/10/04 01:23:55;;;;;;;;;;;;;;;;;;5093122;28;19971;-77
2022/10/04 01:26:22;;;;;;;;;;;;;;;;;;5087135;28;20272;-77
2022/10/04 01:28:48;;;;;;;;;;;;;;;;;;5100686;27;19964;-78
2022/10/04 01:31:15;;;;;;;;;;;;;;;;;;5100767;28;19984;-77
2022/10/04 01:33:41;;;;;;;;;;;;;;;;;;5097791;28;19959;-77
2022/10/04 01:36:07;;;;;;;;;;;;;;;;;;5095878;27;19965;-78
2022/10/04 01:38:33;;;;;;;;;;;;;;;;;;5097068;27;19950;-77
2022/10/04 01:41:01;;;;;;;;;;;;;;;;;;5092914;28;20324;-77
2022/10/04 01:43:27;;;;;;;;;;;;;;;;;;5095017;27;20395;-82
2022/10/04 01:45:53;;;;;;;;;;;;;;;;;;5092803;28;20290;-77
2022/10/04 01:48:19;;;;;;;;;;;;;;;;;;5103413;28;19943;-77
2022/10/04 01:50:46;;;;;;;;;;;;;;;;;;5101460;28;19951;-77
2022/10/04 01:53:12;;;;;;;;;;;;;;;;;;5092097;28;20052;-77
2022/10/04 01:55:40;;;;;;;;;;;;;;;;;;5097592;28;19920;-77
2022/10/04 01:58:06;;;;;;;;;;;;;;;;;;5092808;28;19951;-77
2022/10/04 02:00:32;;;;;;;;;;;;;;;;;;5099991;28;20358;-76
2022/10/04 02:02:58;;;;;;;;;;;;;;;;;;5102824;28;20014;-77
2022/10/04 02:05:24;;;;;;;;;;;;;;;;;;5089488;28;19958;-77
2022/10/04 02:07:50;;;;;;;;;;;;;;;;;;5091923;28;19951;-77
2022/10/04 02:10:17;;;;;;;;;;;;;;;;;;5092753;28;20481;-77
2022/10/04 02:12:43;;;;;;;;;;;;;;;;;;5093034;28;19967;-77
2022/10/04 02:15:10;;;;;;;;;;;;;;;;;;5100536;28;19951;-77
2022/10/04 02:17:37;;;;;;;;;;;;;;;;;;5085918;28;20033;-77
2022/10/04 02:20:03;;;;;;;;;;;;;;;;;;5096664;28;19947;-76
2022/10/04 02:22:29;;;;;;;;;;;;;;;;;;5096625;28;19963;-77
2022/10/04 02:24:55;;;;;;;;;;;;;;;;;;5084487;28;19958;-77
2022/10/04 02:27:21;;;;;;;;;;;;;;;;;;5101348;28;19951;-77
2022/10/04 02:29:47;;;;;;;;;;;;;;;;;;5091317;28;19959;-77
2022/10/04 02:34:59;;;;;;;;;;;;;;;;;;5105464;28;20434;-77
2022/10/04 02:37:25;;;;;;;;;;;;;;;;;;5103431;28;19954;-77
2022/10/04 02:39:51;;;;;;;;;;;;;;;;;;5097558;28;20359;-77
2022/10/04 02:42:17;;;;;;;;;;;;;;;;;;5097676;28;19954;-78
2022/10/04 02:44:43;;;;;;;;;;;;;;;;;;5104833;28;19955;-77
2022/10/04 02:47:10;;;;;;;;;;;;;;;;;;5100810;28;19960;-77
2022/10/04 02:49:36;;;;;;;;;;;;;;;;;;5095073;28;20336;-77
2022/10/04 02:52:03;;;;;;;;;;;;;;;;;;5097238;28;19947;-76
2022/10/04 02:54:29;;;;;;;;;;;;;;;;;;5097817;28;19947;-77
2022/10/04 02:56:55;;;;;;;;;;;;;;;;;;5107375;27;19970;-77
2022/10/04 02:59:21;;;;;;;;;;;;;;;;;;5079022;28;20389;-78
2022/10/04 03:01:48;;;;;;;;;;;;;;;;;;5097804;28;19971;-78
2022/10/04 03:04:14;;;;;;;;;;;;;;;;;;5095026;28;20693;-77
2022/10/04 03:06:40;;;;;;;;;;;;;;;;;;5087690;28;19947;-77
2022/10/04 03:09:07;;;;;;;;;;;;;;;;;;5085598;28;19955;-77
2022/10/04 03:11:33;;;;;;;;;;;;;;;;;;5098793;27;19944;-77
2022/10/04 03:13:59;;;;;;;;;;;;;;;;;;5083629;28;19962;-76
2022/10/04 03:16:26;;;;;;;;;;;;;;;;;;5093104;28;20363;-81
2022/10/04 03:18:52;;;;;;;;;;;;;;;;;;5100749;28;19951;-78
2022/10/04 03:21:18;;;;;;;;;;;;;;;;;;5090729;28;19967;-78
2022/10/04 03:23:44;;;;;;;;;;;;;;;;;;5098741;28;20374;-77
2022/10/04 03:26:11;;;;;;;;;;;;;;;;;;5112232;27;19998;-77
2022/10/04 03:28:37;;;;;;;;;;;;;;;;;;5097275;28;19951;-77
2022/10/04 03:31:03;;;;;;;;;;;;;;;;;;5102644;28;20354;-78
2022/10/04 03:33:29;;;;;;;;;;;;;;;;;;5102999;28;19939;-77
2022/10/04 03:35:56;;;;;;;;;;;;;;;;;;5105160;28;21584;-77
2022/10/04 03:38:22;;;;;;;;;;;;;;;;;;5101858;28;19958;-77
2022/10/04 03:40:50;;;;;;;;;;;;;;;;;;5084821;28;19963;-76
2022/10/04 03:43:16;;;;;;;;;;;;;;;;;;5089213;28;19959;-76
2022/10/04 03:45:42;;;;;;;;;;;;;;;;;;5094659;28;20313;-77
2022/10/04 03:48:08;;;;;;;;;;;;;;;;;;5096611;28;20394;-77
2022/10/04 03:50:35;;;;;;;;;;;;;;;;;;5098924;28;20018;-76
2022/10/04 03:53:03;;;;;;;;;;;;;;;;;;5089593;28;20376;-76
2022/10/04 03:55:29;;;;;;;;;;;;;;;;;;5097753;28;19971;-76
2022/10/04 03:57:55;;;;;;;;;;;;;;;;;;5097487;28;20399;-76
2022/10/04 04:00:21;;;;;;;;;;;;;;;;;;5099270;28;19989;-76
2022/10/04 04:02:47;;;;;;;;;;;;;;;;;;5102681;28;20051;-75
2022/10/04 04:05:14;;;;;;;;;;;;;;;;;;5086845;28;19958;-76
2022/10/04 04:07:40;;;;;;;;;;;;;;;;;;5097983;27;20340;-75
2022/10/04 04:10:06;;;;;;;;;;;;;;;;;;5076054;28;19955;-76
2022/10/04 04:12:33;;;;;;;;;;;;;;;;;;5093247;28;19955;-77
2022/10/04 04:15:00;;;;;;;;;;;;;;;;;;5082866;28;19964;-75
2022/10/04 04:17:26;;;;;;;;;;;;;;;;;;5095156;28;19966;-78
2022/10/04 04:19:52;;;;;;;;;;;;;;;;;;5093104;28;19967;-76
2022/10/04 04:22:18;;;;;;;;;;;;;;;;;;5094781;28;20007;-76
2022/10/04 04:24:44;;;;;;;;;;;;;;;;;;5077876;28;20016;-76
2022/10/04 04:27:11;;;;;;;;;;;;;;;;;;5094955;28;19940;-76
2022/10/04 04:29:37;;;;;;;;;;;;;;;;;;5094460;28;20586;-76
2022/10/04 04:32:03;;;;;;;;;;;;;;;;;;5096827;28;19963;-76
2022/10/04 04:34:29;;;;;;;;;;;;;;;;;;5095374;28;20034;-81
2022/10/04 04:36:57;;;;;;;;;;;;;;;;;;5081873;28;19943;-76
2022/10/04 04:39:33;;;;;;;;;;;;;;;;;;5096397;28;20350;-76
2022/10/04 04:41:59;;;;;;;;;;;;;;;;;;5083401;28;19971;-75
2022/10/04 04:44:25;;;;;;;;;;;;;;;;;;5090607;28;19955;-76
2022/10/04 04:46:59;;;;;;;;;;;;;;;;;;5085453;28;19967;-75
2022/10/04 04:49:25;;;;;;;;;;;;;;;;;;5090641;28;20395;-75
2022/10/04 04:51:51;;;;;;;;;;;;;;;;;;5075322;28;19916;-75
2022/10/04 04:54:17;;;;;;;;;;;;;;;;;;5097342;28;19955;-76
2022/10/04 04:56:44;;;;;;;;;;;;;;;;;;5097896;28;19963;-76
2022/10/04 04:59:10;;;;;;;;;;;;;;;;;;5101188;28;19955;-75
2022/10/04 05:01:37;;;;;;;;;;;;;;;;;;5100498;28;19967;-76
2022/10/04 05:04:03;;;;;;;;;;;;;;;;;;5093949;28;19963;-76
2022/10/04 05:06:29;;;;;;;;;;;;;;;;;;5097676;28;19974;-76
2022/10/04 05:08:55;;;;;;;;;;;;;;;;;;5087238;28;19932;-76
2022/10/04 05:11:21;;;;;;;;;;;;;;;;;;5097202;28;20575;-75
2022/10/04 05:13:48;;;;;;;;;;;;;;;;;;5092442;28;19959;-75
2022/10/04 05:16:14;;;;;;;;;;;;;;;;;;5081434;28;19951;-77
2022/10/04 05:18:40;;;;;;;;;;;;;;;;;;5093332;28;19967;-76
2022/10/04 05:21:06;;;;;;;;;;;;;;;;;;5083358;28;19951;-76
2022/10/04 05:23:33;;;;;;;;;;;;;;;;;;5098854;28;19916;-75
2022/10/04 05:26:01;;;;;;;;;;;;;;;;;;5094704;28;19963;-79
2022/10/04 05:28:27;;;;;;;;;;;;;;;;;;5092491;28;19962;-76
2022/10/04 05:30:53;;;;;;;;;;;;;;;;;;5058122;28;20347;-76
2022/10/04 05:33:20;;;;;;;;;;;;;;;;;;5090211;28;20065;-76
2022/10/04 05:35:47;;;;;;;;;;;;;;;;;;5088602;28;19959;-76
2022/10/04 05:38:13;;;;;;;;;;;;;;;;;;5086516;28;19939;-76
2022/10/04 05:40:40;;;;;;;;;;;;;;;;;;5096988;28;19959;-76
2022/10/04 05:43:06;;;;;;;;;;;;;;;;;;5085881;28;19964;-76
2022/10/04 05:45:32;;;;;;;;;;;;;;;;;;5101477;28;19955;-76
2022/10/04 05:47:58;;;;;;;;;;;;;;;;;;5091559;28;19963;-76
2022/10/04 05:50:25;;;;;;;;;;;;;;;;;;5104728;28;19955;-76
2022/10/04 05:52:51;;;;;;;;;;;;;;;;;;5104577;27;19966;-76
2022/10/04 05:55:18;;;;;;;;;;;;;;;;;;5102430;28;19955;-78
2022/10/04 05:57:44;;;;;;;;;;;;;;;;;;5095083;28;20155;-76
2022/10/04 06:00:10;;;;;;;;;;;;;;;;;;5090312;28;19999;-76
2022/10/04 06:02:36;;;;;;;;;;;;;;;;;;5090238;28;19968;-76
2022/10/04 06:05:02;;;;;;;;;;;;;;;;;;5097457;28;19955;-75
2022/10/04 06:07:29;;;;;;;;;;;;;;;;;;5089342;28;19956;-75
2022/10/04 06:09:55;;;;;;;;;;;;;;;;;;5076806;28;19962;-76
2022/10/04 06:12:28;;;;;;;;;;;;;;;;;;5080983;28;20324;-75
2022/10/04 06:14:57;;;;;;;;;;;;;;;;;;5101114;28;19966;-75
2022/10/04 06:17:23;;;;;;;;;;;;;;;;;;5091070;28;19947;-75
2022/10/04 06:19:52;;;;;;;;;;;;;;;;;;5086042;28;20443;-77
2022/10/04 06:22:18;;;;;;;;;;;;;;;;;;5094325;28;19970;-76
2022/10/04 06:24:44;;;;;;;;;;;;;;;;;;5095698;28;20343;-75
2022/10/04 06:27:11;;;;;;;;;;;;;;;;;;5098495;28;19959;-75
2022/10/04 06:29:37;;;;;;;;;;;;;;;;;;5097495;28;19939;-75
2022/10/04 06:32:03;;;;;;;;;;;;;;;;;;5098878;28;19955;-76
2022/10/04 06:34:29;;;;;;;;;;;;;;;;;;5103480;28;20348;-76
2022/10/04 06:36:56;;;;;;;;;;;;;;;;;;5104026;28;19947;-76
2022/10/04 06:39:22;;;;;;;;;;;;;;;;;;5094112;28;19963;-75
2022/10/04 06:41:48;;;;;;;;;;;;;;;;;;5099968;28;20713;-75
2022/10/04 06:44:14;;;;;;;;;;;;;;;;;;5098970;28;19950;-76
2022/10/04 06:46:41;;;;;;;;;;;;;;;;;;5098870;28;19955;-76
2022/10/04 06:49:08;;;;;;;;;;;;;;;;;;5095546;28;19954;-76
2022/10/04 06:51:34;;;;;;;;;;;;;;;;;;5092821;28;20355;-75
2022/10/04 06:54:01;;;;;;;;;;;;;;;;;;5084932;28;19959;-75
2022/10/04 06:56:27;;;;;;;;;;;;;;;;;;5091773;28;19967;-76
2022/10/04 06:58:53;;;;;;;;;;;;;;;;;;5090704;28;20359;-75
2022/10/04 07:01:19;;;;;;;;;;;;;;;;;;5095729;28;19960;-75
2022/10/04 07:03:45;;;;;;;;;;;;;;;;;;5091137;28;19974;-75
2022/10/04 07:06:11;;;;;;;;;;;;;;;;;;5097899;28;19961;-76
2022/10/04 07:08:38;;;;;;;;;;;;;;;;;;5091418;28;20340;-76
2022/10/04 07:11:04;;;;;;;;;;;;;;;;;;5096890;28;19966;-75
2022/10/04 07:13:32;;;;;;;;;;;;;;;;;;5100144;28;19977;-77
2022/10/04 07:16:00;;;;;;;;;;;;;;;;;;5083178;28;19951;-77
2022/10/04 07:18:27;;;;;;;;;;;;;;;;;;5097408;27;19916;-77
2022/10/04 07:20:54;;;;;;;;;;;;;;;;;;5102257;28;19955;-76
2022/10/04 07:23:21;;;;;;;;;;;;;;;;;;5100354;28;19967;-77
2022/10/04 07:25:47;;;;;;;;;;;;;;;;;;5100623;28;19951;-75
2022/10/04 07:30:58;;;;;;;;;;;;;;;;;;5101286;28;19963;-75
2022/10/04 07:33:24;;;;;;;;;;;;;;;;;;5094882;28;19969;-76
2022/10/04 07:35:50;;;;;;;;;;;;;;;;;;5102714;27;20372;-76
2022/10/04 07:38:16;;;;;;;;;;;;;;;;;;5098398;28;19959;-76
2022/10/04 07:40:42;;;;;;;;;;;;;;;;;;5101040;28;20424;-77
2022/10/04 07:43:09;;;;;;;;;;;;;;;;;;5099828;28;19952;-76
2022/10/04 07:45:35;;;;;;;;;;;;;;;;;;5098990;28;19915;-76
2022/10/04 07:48:01;;;;;;;;;;;;;;;;;;5099501;28;20445;-76
2022/10/04 07:50:27;;;;;;;;;;;;;;;;;;5099755;28;19955;-76
2022/10/04 07:52:53;;;;;;;;;;;;;;;;;;5090968;28;19966;-76
2022/10/04 07:55:19;;;;;;;;;;;;;;;;;;5102407;28;19951;-76
2022/10/04 07:57:46;;;;;;;;;;;;;;;;;;5106280;28;19991;-77
2022/10/04 08:00:12;;;;;;;;;;;;;;;;;;5105155;28;19962;-76
2022/10/04 08:02:38;;;;;;;;;;;;;;;;;;5100839;28;20009;-77
2022/10/04 08:05:05;;;;;;;;;;;;;;;;;;5103119;28;19948;-76
2022/10/04 08:07:32;;;;;;;;;;;;;;;;;;5096318;28;19982;-77
2022/10/04 08:09:59;;;;;;;;;;;;;;;;;;5105683;28;20053;-76
2022/10/04 08:12:25;;;;;;;;;;;;;;;;;;5085370;28;19966;-77
2022/10/04 08:14:52;;;;;;;;;;;;;;;;;;5092094;28;19955;-76
2022/10/04 08:17:18;;;;;;;;;;;;;;;;;;5096047;28;20337;-77
2022/10/04 08:19:44;;;;;;;;;;;;;;;;;;5098994;28;19970;-76
2022/10/04 08:22:10;;;;;;;;;;;;;;;;;;5083056;28;20466;-76
2022/10/04 08:24:36;;;;;;;;;;;;;;;;;;5098061;28;19951;-76
2022/10/04 08:27:03;;;;;;;;;;;;;;;;;;5088152;28;19974;-75
2022/10/04 08:29:41;;;;;;;;;;;;;;;;;;5094975;28;19947;-75
2022/10/04 08:32:08;;;;;;;;;;;;;;;;;;5107119;28;19936;-76
2022/10/04 08:34:34;;;;;;;;;;;;;;;;;;5087926;28;19952;-76
2022/10/04 08:37:02;;;;;;;;;;;;;;;;;;5096833;28;20357;-75
2022/10/04 08:39:28;;;;;;;;;;;;;;;;;;5083749;28;19951;-76
2022/10/04 08:41:54;;;;;;;;;;;;;;;;;;5102856;28;19963;-76
2022/10/04 08:44:22;;;;;;;;;;;;;;;;;;5095023;28;19963;-76
2022/10/04 08:46:48;;;;;;;;;;;;;;;;;;5097216;28;19955;-75
2022/10/04 08:49:15;;;;;;;;;;;;;;;;;;5097230;27;19963;-76
2022/10/04 08:51:41;;;;;;;;;;;;;;;;;;5097618;28;19951;-76
2022/10/04 08:54:07;;;;;;;;;;;;;;;;;;5095417;28;19952;-76
2022/10/04 08:56:33;;;;;;;;;;;;;;;;;;5091897;28;20787;-76
2022/10/04 08:59:01;;;;;;;;;;;;;;;;;;5093608;28;19955;-75
2022/10/04 09:01:27;;;;;;;;;;;;;;;;;;5077063;28;19951;-76
2022/10/04 09:04:00;;;;;;;;;;;;;;;;;;5094219;28;19975;-76
2022/10/04 09:06:26;;;;;;;;;;;;;;;;;;5096115;28;19958;-75
2022/10/04 09:08:52;;;;;;;;;;;;;;;;;;5095798;28;19967;-75
2022/10/04 09:11:18;;;;;;;;;;;;;;;;;;5096569;28;19932;-77
2022/10/04 09:13:45;;;;;;;;;;;;;;;;;;5090727;28;19966;-76
2022/10/04 09:16:11;;;;;;;;;;;;;;;;;;5094005;28;19956;-81
2022/10/04 09:18:37;;;;;;;;;;;;;;;;;;5091505;28;20487;-76
2022/10/04 09:21:03;;;;;;;;;;;;;;;;;;5100764;28;20007;-76
2022/10/04 09:23:29;;;;;;;;;;;;;;;;;;5098325;28;19982;-75
2022/10/04 09:25:56;;;;;;;;;;;;;;;;;;5099122;28;19951;-76
2022/10/04 09:28:23;;;;;;;;;;;;;;;;;;5098256;28;19948;-78
2022/10/04 09:30:49;;;;;;;;;;;;;;;;;;5104761;28;19947;-77
2022/10/04 09:33:15;;;;;;;;;;;;;;;;;;5103056;28;19963;-76
2022/10/04 09:35:41;;;;;;;;;;;;;;;;;;5099513;28;19951;-76
2022/10/04 09:38:08;;;;;;;;;;;;;;;;;;5065445;28;19959;-77
2022/10/04 09:40:34;;;;;;;;;;;;;;;;;;5100204;28;20301;-76
2022/10/04 09:43:00;;;;;;;;;;;;;;;;;;5097677;28;20038;-77
2022/10/04 09:45:27;;;;;;;;;;;;;;;;;;5098996;28;19955;-77
2022/10/04 09:47:53;;;;;;;;;;;;;;;;;;5098951;28;20600;-76
2022/10/04 09:50:23;;;;;;;;;;;;;;;;;;5093350;28;19962;-77
2022/10/04 09:52:49;;;;;;;;;;;;;;;;;;5075222;28;19970;-77
2022/10/04 09:55:15;;;;;;;;;;;;;;;;;;5097638;28;19943;-77
2022/10/04 09:57:41;;;;;;;;;;;;;;;;;;5092579;28;19978;-76
2022/10/04 10:00:09;;;;;;;;;;;;;;;;;;5100073;28;19958;-76
2022/10/04 10:02:37;;;;;;;;;;;;;;;;;;5100983;27;19967;-76
2022/10/04 10:05:03;;;;;;;;;;;;;;;;;;5085776;28;20441;-76
2022/10/04 10:07:29;;;;;;;;;;;;;;;;;;5082417;28;19978;-77
2022/10/04 10:15:25;;;;;;;;;;;;;;;;;;5104015;28;19959;-77
2022/10/04 10:17:52;;;;;;;;;;;;;;;;;;5100523;28;19919;-77
2022/10/04 10:20:18;;;;;;;;;;;;;;;;;;5100054;28;19996;-78
2022/10/04 10:22:44;;;;;;;;;;;;;;;;;;5095051;28;20030;-77
2022/10/04 10:25:10;;;;;;;;;;;;;;;;;;5091062;28;19948;-77
2022/10/04 10:27:36;;;;;;;;;;;;;;;;;;5093243;28;19950;-77
2022/10/04 10:30:03;;;;;;;;;;;;;;;;;;5097845;28;20284;-77
2022/10/04 10:32:29;;;;;;;;;;;;;;;;;;5102316;28;20376;-77
2022/10/04 10:34:55;;;;;;;;;;;;;;;;;;5095733;28;19951;-75
2022/10/04 10:37:21;;;;;;;;;;;;;;;;;;5092069;28;19959;-75
2022/10/04 10:39:48;;;;;;;;;;;;;;;;;;5092589;28;19982;-75
2022/10/04 10:42:15;;;;;;;;;;;;;;;;;;5091104;28;19966;-76
2022/10/04 10:44:41;;;;;;;;;;;;;;;;;;5080483;28;19959;-75
2022/10/04 10:47:07;;;;;;;;;;;;;;;;;;5097929;27;19940;-76
2022/10/04 10:49:34;;;;;;;;;;;;;;;;;;5079432;28;19955;-75
2022/10/04 10:52:00;;;;;;;;;;;;;;;;;;5097597;27;19962;-75
2022/10/04 10:54:29;;;;;;;;;;;;;;;;;;5096179;28;19955;-76
2022/10/04 10:56:55;;;;;;;;;;;;;;;;;;5096030;28;19963;-75
2022/10/04 10:59:21;;;;;;;;;;;;;;;;;;5096862;28;19967;-75
2022/10/04 11:01:47;;;;;;;;;;;;;;;;;;5096328;27;19955;-75
2022/10/04 11:04:14;;;;;;;;;;;;;;;;;;5096735;27;20413;-75
2022/10/04 11:06:40;;;;;;;;;;;;;;;;;;5108107;28;19947;-75
2022/10/04 11:09:06;;;;;;;;;;;;;;;;;;5083369;28;19952;-76
2022/10/04 11:11:33;;;;;;;;;;;;;;;;;;5100775;28;19947;-77
2022/10/04 11:13:59;;;;;;;;;;;;;;;;;;5100626;28;19963;-76
2022/10/04 11:16:25;;;;;;;;;;;;;;;;;;5093983;28;19972;-77
2022/10/04 11:18:51;;;;;;;;;;;;;;;;;;5097894;28;20414;-76
2022/10/04 11:21:20;;;;;;;;;;;;;;;;;;5098003;28;20043;-76
2022/10/04 11:23:47;;;;;;;;;;;;;;;;;;5096154;28;21340;-76
2022/10/04 11:26:14;;;;;;;;;;;;;;;;;;5098399;28;19959;-76
2022/10/04 11:28:45;;;;;;;;;;;;;;;;;;5103381;28;19951;-76
2022/10/04 11:31:11;;;;;;;;;;;;;;;;;;5097688;28;19958;-76
2022/10/04 11:33:37;;;;;;;;;;;;;;;;;;5099995;28;19958;-76
2022/10/04 11:36:06;;;;;;;;;;;;;;;;;;5093450;28;20521;-76
2022/10/04 11:38:34;;;;;;;;;;;;;;;;;;5104807;28;19931;-77
2022/10/04 11:41:00;;;;;;;;;;;;;;;;;;5105207;28;19951;-76
2022/10/04 11:43:26;;;;;;;;;;;;;;;;;;5106406;28;19999;-76
2022/10/04 11:45:54;;;;;;;;;;;;;;;;;;5099242;28;19967;-76
2022/10/04 11:48:20;;;;;;;;;;;;;;;;;;5101617;28;20363;-76
2022/10/04 11:50:48;;;;;;;;;;;;;;;;;;5097503;28;19974;-77
2022/10/04 11:53:14;;;;;;;;;;;;;;;;;;5101890;28;20382;-75
2022/10/04 11:55:41;;;;;;;;;;;;;;;;;;5095634;28;19959;-76
2022/10/04 11:58:07;;;;;;;;;;;;;;;;;;5099204;28;19967;-75
2022/10/04 12:00:34;;;;;;;;;;;;;;;;;;5097047;28;19952;-77
2022/10/04 12:03:06;;;;;;;;;;;;;;;;;;5100167;28;20350;-76
2022/10/04 12:05:32;;;;;;;;;;;;;;;;;;5094506;28;19967;-76
2022/10/04 12:08:00;;;;;;;;;;;;;;;;;;5097495;28;19959;-75
2022/10/04 12:10:26;;;;;;;;;;;;;;;;;;5096513;28;19951;-75
2022/10/04 12:12:52;;;;;;;;;;;;;;;;;;5097519;28;19955;-75
2022/10/04 12:15:20;;;;;;;;;;;;;;;;;;5097177;28;19950;-76
2022/10/04 12:17:47;;;;;;;;;;;;;;;;;;5090345;28;20318;-76
2022/10/04 12:20:13;;;;;;;;;;;;;;;;;;5095767;28;19939;-76
2022/10/04 12:22:39;;;;;;;;;;;;;;;;;;5096997;28;19928;-75
2022/10/04 12:25:07;;;;;;;;;;;;;;;;;;5096812;28;20474;-76
2022/10/04 12:27:33;;;;;;;;;;;;;;;;;;5094381;28;19943;-76
2022/10/04 12:29:59;;;;;;;;;;;;;;;;;;5088144;28;20336;-76
2022/10/04 12:32:26;;;;;;;;;;;;;;;;;;5100740;28;19959;-76
2022/10/04 12:34:52;;;;;;;;;;;;;;;;;;5097810;28;19957;-76
2022/10/04 12:37:18;;;;;;;;;;;;;;;;;;5103418;28;19961;-77
2022/10/04 12:39:44;;;;;;;;;;;;;;;;;;5097872;28;19962;-76
2022/10/04 12:42:11;;;;;;;;;;;;;;;;;;5100005;28;19959;-77
2022/10/04 12:44:39;;;;;;;;;;;;;;;;;;5105180;27;19955;-77
2022/10/04 12:47:05;;;;;;;;;;;;;;;;;;5105689;28;19951;-76
2022/10/04 12:49:32;;;;;;;;;;;;;;;;;;5091418;28;19962;-76
2022/10/04 12:51:58;;;;;;;;;;;;;;;;;;5097957;28;19974;-76
2022/10/04 12:54:24;;;;;;;;;;;;;;;;;;5096677;28;19955;-76
2022/10/04 12:56:50;;;;;;;;;;;;;;;;;;5097994;28;20438;-76
2022/10/04 12:59:16;;;;;;;;;;;;;;;;;;5095069;28;19955;-76
2022/10/04 13:01:42;;;;;;;;;;;;;;;;;;5096685;28;20056;-76
2022/10/04 13:04:09;;;;;;;;;;;;;;;;;;5093113;28;19963;-76
2022/10/04 13:06:35;;;;;;;;;;;;;;;;;;5096672;28;19939;-76
2022/10/04 13:09:01;;;;;;;;;;;;;;;;;;5093797;28;20368;-76
2022/10/04 13:11:27;;;;;;;;;;;;;;;;;;5067735;28;19920;-76
2022/10/04 13:13:54;;;;;;;;;;;;;;;;;;5086311;28;19955;-77
2022/10/04 13:16:21;;;;;;;;;;;;;;;;;;5102775;28;19950;-78
2022/10/04 13:18:47;;;;;;;;;;;;;;;;;;5093321;28;21819;-76
2022/10/04 13:21:13;;;;;;;;;;;;;;;;;;5104009;28;19955;-76
2022/10/04 13:23:39;;;;;;;;;;;;;;;;;;5097070;28;19997;-77
2022/10/04 13:26:06;;;;;;;;;;;;;;;;;;5100076;28;19951;-76
2022/10/04 13:28:32;;;;;;;;;;;;;;;;;;5095038;27;19943;-76
2022/10/04 13:30:59;;;;;;;;;;;;;;;;;;5099043;28;19955;-76
2022/10/04 13:33:26;;;;;;;;;;;;;;;;;;5097040;28;19966;-77
2022/10/04 13:35:53;;;;;;;;;;;;;;;;;;5093033;28;19951;-76
2022/10/04 13:38:19;;;;;;;;;;;;;;;;;;5095396;28;20087;-76
2022/10/04 13:40:45;;;;;;;;;;;;;;;;;;5072091;28;21335;-76
2022/10/04 13:43:12;;;;;;;;;;;;;;;;;;5103242;28;20023;-76
2022/10/04 13:45:38;;;;;;;;;;;;;;;;;;5097733;28;20402;-80
2022/10/04 13:48:04;;;;;;;;;;;;;;;;;;5098620;27;19952;-79
2022/10/04 13:50:31;;;;;;;;;;;;;;;;;;5091122;28;20378;-80
2022/10/04 13:58:35;;;;;;;;;;;;;;;;;;5079309;28;19973;-79
2022/10/04 14:01:01;;;;;;;;;;;;;;;;;;5094254;28;19962;-79
2022/10/04 14:03:27;;;;;;;;;;;;;;;;;;5092131;28;20369;-80
2022/10/04 14:05:54;;;;;;;;;;;;;;;;;;5096005;28;20391;-79
2022/10/04 14:08:20;;;;;;;;;;;;;;;;;;5081494;28;19955;-80
2022/10/04 14:10:46;;;;;;;;;;;;;;;;;;5095771;28;22572;-79
2022/10/04 14:13:12;;;;;;;;;;;;;;;;;;5082733;28;19919;-79
2022/10/04 14:15:40;;;;;;;;;;;;;;;;;;5078339;28;19944;-79
2022/10/04 14:18:06;;;;;;;;;;;;;;;;;;5092711;28;19943;-79
2022/10/04 14:20:33;;;;;;;;;;;;;;;;;;5094051;28;19955;-80
2022/10/04 14:23:01;;;;;;;;;;;;;;;;;;5085455;28;19970;-80
2022/10/04 14:25:29;;;;;;;;;;;;;;;;;;5098780;28;19963;-80
2022/10/04 14:27:55;;;;;;;;;;;;;;;;;;5089952;28;20025;-80
2022/10/04 14:30:22;;;;;;;;;;;;;;;;;;5098510;27;19959;-81
2022/10/04 14:32:50;;;;;;;;;;;;;;;;;;5076376;28;19962;-81
2022/10/04 14:35:17;;;;;;;;;;;;;;;;;;5098447;28;19969;-80
2022/10/04 14:37:43;;;;;;;;;;;;;;;;;;5084079;28;19947;-80
2022/10/04 14:40:09;;;;;;;;;;;;;;;;;;5098522;28;19920;-79
2022/10/04 14:42:35;;;;;;;;;;;;;;;;;;5100909;28;19967;-79
2022/10/04 14:45:03;;;;;;;;;;;;;;;;;;5096154;28;19959;-80
2022/10/04 14:47:29;;;;;;;;;;;;;;;;;;5092772;28;19943;-81
2022/10/04 14:49:56;;;;;;;;;;;;;;;;;;5100581;28;20347;-79
2022/10/04 14:52:22;;;;;;;;;;;;;;;;;;5098224;28;20382;-81
2022/10/04 14:54:48;;;;;;;;;;;;;;;;;;5093254;28;19963;-79
2022/10/04 14:57:15;;;;;;;;;;;;;;;;;;5098515;28;20410;-79
2022/10/04 14:59:41;;;;;;;;;;;;;;;;;;5091886;28;19971;-79
2022/10/04 15:02:08;;;;;;;;;;;;;;;;;;5076507;28;19979;-80
2022/10/04 15:04:34;;;;;;;;;;;;;;;;;;5060321;28;20019;-79
2022/10/04 15:07:00;;;;;;;;;;;;;;;;;;5094351;28;20398;-80
2022/10/04 15:09:27;;;;;;;;;;;;;;;;;;5093129;28;20392;-80
2022/10/04 15:11:53;;;;;;;;;;;;;;;;;;5096140;28;19916;-80
2022/10/04 15:14:20;;;;;;;;;;;;;;;;;;5093490;28;19954;-78
2022/10/04 15:16:47;;;;;;;;;;;;;;;;;;5088325;28;20214;-78
2022/10/04 15:19:14;;;;;;;;;;;;;;;;;;5092236;28;19959;-78
2022/10/04 15:21:41;;;;;;;;;;;;;;;;;;5079528;28;19956;-78
2022/10/04 15:24:07;;;;;;;;;;;;;;;;;;5096822;28;19990;-78
2022/10/04 15:26:35;;;;;;;;;;;;;;;;;;5085093;28;19955;-76
2022/10/04 15:29:01;;;;;;;;;;;;;;;;;;5097351;28;19970;-76
2022/10/04 15:31:27;;;;;;;;;;;;;;;;;;5078216;28;19963;-77
2022/10/04 15:33:54;;;;;;;;;;;;;;;;;;5101484;28;19970;-79
2022/10/04 15:36:20;;;;;;;;;;;;;;;;;;5106092;27;19963;-78
2022/10/04 15:38:46;;;;;;;;;;;;;;;;;;5095093;28;20003;-80
2022/10/04 15:41:12;;;;;;;;;;;;;;;;;;5105795;27;19979;-78
2022/10/04 15:43:38;;;;;;;;;;;;;;;;;;5095532;28;19958;-78
2022/10/04 15:46:04;;;;;;;;;;;;;;;;;;5085365;28;19971;-79
2022/10/04 15:48:31;;;;;;;;;;;;;;;;;;5097128;28;19967;-79
2022/10/04 15:50:58;;;;;;;;;;;;;;;;;;5095540;28;19952;-80
2022/10/04 15:53:24;;;;;;;;;;;;;;;;;;5089504;28;19959;-79
2022/10/04 15:55:50;;;;;;;;;;;;;;;;;;5084032;28;19967;-79
2022/10/04 15:58:16;;;;;;;;;;;;;;;;;;5098186;28;19924;-79
2022/10/04 16:00:43;;;;;;;;;;;;;;;;;;5067035;28;19947;-79
2022/10/04 16:03:09;;;;;;;;;;;;;;;;;;5093454;28;19967;-79
2022/10/04 16:05:38;;;;;;;;;;;;;;;;;;5090817;28;19955;-79
2022/10/04 16:08:04;;;;;;;;;;;;;;;;;;5087242;28;20341;-79
2022/10/04 16:10:30;;;;;;;;;;;;;;;;;;5093832;28;19955;-79
2022/10/04 16:12:57;;;;;;;;;;;;;;;;;;5097847;28;19962;-79
2022/10/04 16:15:23;;;;;;;;;;;;;;;;;;5100207;28;20331;-80
2022/10/04 16:17:49;;;;;;;;;;;;;;;;;;5088301;28;20601;-79
2022/10/04 16:20:15;;;;;;;;;;;;;;;;;;5097397;28;20550;-79
2022/10/04 16:22:41;;;;;;;;;;;;;;;;;;5099143;27;19984;-79
2022/10/04 16:25:08;;;;;;;;;;;;;;;;;;5098699;28;19959;-78
2022/10/04 16:27:34;;;;;;;;;;;;;;;;;;5089305;28;19966;-79
2022/10/04 16:30:00;;;;;;;;;;;;;;;;;;5088638;28;20360;-79
2022/10/04 16:32:28;;;;;;;;;;;;;;;;;;5097947;28;20704;-79
2022/10/04 16:34:55;;;;;;;;;;;;;;;;;;5100704;28;20343;-79
2022/10/04 16:37:22;;;;;;;;;;;;;;;;;;5102727;28;20340;-79
2022/10/04 16:40:06;;;;;;;;;;;;;;;;;;5099909;28;19967;-78
2022/10/04 16:42:32;;;;;;;;;;;;;;;;;;5097823;28;19943;-77
2022/10/04 16:44:59;;;;;;;;;;;;;;;;;;5100560;28;19952;-76
2022/10/04 16:47:25;;;;;;;;;;;;;;;;;;5094864;28;19973;-76
2022/10/04 16:49:53;;;;;;;;;;;;;;;;;;5097296;28;19955;-76
2022/10/04 16:52:20;;;;;;;;;;;;;;;;;;5095872;28;19919;-76
2022/10/04 16:54:46;;;;;;;;;;;;;;;;;;5095932;28;19959;-76
2022/10/04 16:57:12;;;;;;;;;;;;;;;;;;5095067;28;19957;-76